Time;durP1;ratioP1;P1;durP2;ratioP2;P2;SDS_P1;SDS_P2;PMS_P1;PMS_P2;Temp;Humidity;BMP_temperature;BMP_pressure;BME280_temperature;BME280_humidity;BME280_pressure;Samples;Min_cycle;Max_cycle;Signal;HPM_P1;HPM_P2
2022/11/03 00:02:10;;;;;;;;;;;10.80;99.90;;;;;;12526210;28;19929;-38
2022/11/03 00:08:12;;;;;;;;;;;10.80;99.90;;;;;;12518328;28;19924;-38
2022/11/03 00:14:14;;;;;;;;;;;10.80;99.90;;;;;;12521008;28;20377;-38
2022/11/03 00:20:15;;;;;;;;;;;10.90;99.90;;;;;;12522679;28;20300;-37
2022/11/03 00:26:17;;;;;;;;;;;10.90;99.90;;;;;;12520540;28;19924;-38
2022/11/03 00:32:19;;;;;;;;;;;11.00;99.90;;;;;;12527386;28;19929;-38
2022/11/03 00:38:21;;;;;;;;;;;11.00;99.90;;;;;;12523951;28;20019;-38
2022/11/03 00:44:23;;;;;;;;;;;11.00;99.90;;;;;;12525586;28;19925;-38
2022/11/03 00:50:24;;;;;;;;;;;11.10;99.90;;;;;;12526217;28;19929;-38
2022/11/03 00:56:27;;;;;;;;;;;11.10;99.90;;;;;;12524146;28;19948;-38
2022/11/03 01:02:29;;;;;;;;;;;11.20;99.90;;;;;;12533333;28;19979;-39
2022/11/03 01:08:32;;;;;;;;;;;11.30;99.90;;;;;;12521868;28;19929;-38
2022/11/03 01:14:38;;;;;;;;;;;11.30;99.90;;;;;;12525886;28;19924;-38
2022/11/03 01:20:40;;;;;;;;;;;11.20;99.90;;;;;;12535607;28;19928;-37
2022/11/03 01:26:41;;;;;;;;;;;11.10;99.90;;;;;;12532247;28;20281;-37
2022/11/03 01:32:43;;;;;;;;;;;10.80;99.90;;;;;;12549730;28;19929;-39
2022/11/03 01:38:45;;;;;;;;;;;10.60;99.90;;;;;;12540329;28;19975;-37
2022/11/03 01:44:47;;;;;;;;;;;10.60;99.90;;;;;;12526684;28;19929;-38
2022/11/03 01:50:50;;;;;;;;;;;10.60;99.90;;;;;;12531695;28;20415;-38
2022/11/03 01:56:53;;;;;;;;;;;10.60;99.90;;;;;;12531108;28;19929;-38
2022/11/03 02:02:55;;;;;;;;;;;10.70;99.90;;;;;;12531276;28;19925;-38
2022/11/03 02:09:01;;;;;;;;;;;10.80;99.90;;;;;;12533927;28;21430;-38
2022/11/03 02:15:07;;;;;;;;;;;10.90;99.90;;;;;;12531723;28;19933;-38
2022/11/03 02:21:24;;;;;;;;;;;10.90;99.90;;;;;;12525740;28;19936;-38
2022/11/03 02:27:26;;;;;;;;;;;10.80;99.90;;;;;;12521696;28;19976;-35
2022/11/03 02:33:48;;;;;;;;;;;10.80;99.90;;;;;;12527668;28;19925;-38
2022/11/03 02:40:02;;;;;;;;;;;10.90;99.90;;;;;;12527159;28;20380;-37
2022/11/03 02:46:04;;;;;;;;;;;10.80;99.90;;;;;;12522120;28;20369;-38
2022/11/03 02:52:26;;;;;;;;;;;10.90;99.90;;;;;;12523372;28;20399;-38
2022/11/03 02:58:37;;;;;;;;;;;10.90;99.90;;;;;;12529136;28;19931;-38
2022/11/03 03:04:41;;;;;;;;;;;11.10;99.90;;;;;;12532373;28;20349;-38
2022/11/03 03:10:44;;;;;;;;;;;11.10;99.90;;;;;;12523661;28;19933;-38
2022/11/03 03:16:48;;;;;;;;;;;11.10;99.90;;;;;;12528578;28;19929;-38
2022/11/03 03:22:55;;;;;;;;;;;11.00;99.90;;;;;;12528188;28;19983;-38
2022/11/03 03:29:06;;;;;;;;;;;11.00;99.90;;;;;;12525844;28;19925;-38
2022/11/03 03:35:09;;;;;;;;;;;11.00;99.90;;;;;;12526082;28;19925;-39
2022/11/03 03:41:20;;;;;;;;;;;10.90;99.90;;;;;;12531496;28;20316;-37
2022/11/03 03:47:26;;;;;;;;;;;10.70;99.90;;;;;;12525054;28;19931;-38
2022/11/03 03:53:29;;;;;;;;;;;10.50;99.90;;;;;;12523021;28;20346;-38
2022/11/03 03:59:30;;;;;;;;;;;10.40;99.90;;;;;;12531720;28;19971;-37
2022/11/03 04:05:32;;;;;;;;;;;10.50;99.90;;;;;;12522638;28;19979;-38
2022/11/03 04:24:32;;;;;;;;;;;10.40;99.90;;;;;;12519589;28;19973;-37
2022/11/03 04:30:33;;;;;;;;;;;10.60;99.90;;;;;;12517642;28;19928;-38
2022/11/03 04:36:35;;;;;;;;;;;10.60;99.90;;;;;;12531807;28;20051;-38
2022/11/03 04:42:37;;;;;;;;;;;10.60;99.90;;;;;;12532601;28;20292;-38
2022/11/03 04:48:39;;;;;;;;;;;10.70;99.90;;;;;;12518918;28;19936;-38
2022/11/03 04:54:41;;;;;;;;;;;10.80;99.90;;;;;;12530276;28;19929;-38
2022/11/03 05:00:43;;;;;;;;;;;11.00;99.90;;;;;;12537267;28;19928;-38
2022/11/03 05:06:48;;;;;;;;;;;11.00;99.90;;;;;;12537428;28;19931;-38
2022/11/03 05:12:51;;;;;;;;;;;11.00;99.90;;;;;;12530265;28;19940;-38
2022/11/03 05:18:53;;;;;;;;;;;11.10;99.90;;;;;;12533377;28;19928;-39
2022/11/03 05:24:56;;;;;;;;;;;11.20;99.90;;;;;;12524954;28;20398;-38
2022/11/03 05:30:58;;;;;;;;;;;11.20;99.90;;;;;;12540674;28;19924;-38
2022/11/03 05:37:06;;;;;;;;;;;11.30;99.90;;;;;;12533346;28;19978;-38
2022/11/03 05:43:09;;;;;;;;;;;11.30;99.90;;;;;;12532524;28;19939;-38
2022/11/03 05:49:13;;;;;;;;;;;11.30;99.90;;;;;;12532479;28;19931;-38
2022/11/03 05:55:21;;;;;;;;;;;11.30;99.90;;;;;;12533864;28;19929;-38
2022/11/03 06:01:37;;;;;;;;;;;11.20;99.90;;;;;;12536279;28;19925;-38
2022/11/03 06:07:39;;;;;;;;;;;11.30;99.90;;;;;;12537094;28;19929;-38
2022/11/03 06:13:40;;;;;;;;;;;11.20;99.90;;;;;;12536362;28;19940;-38
2022/11/03 06:19:49;;;;;;;;;;;11.20;99.90;;;;;;12534607;28;19978;-38
2022/11/03 06:25:52;;;;;;;;;;;11.20;99.90;;;;;;12536473;28;19933;-37
2022/11/03 06:31:56;;;;;;;;;;;11.20;99.90;;;;;;12537641;28;19928;-38
2022/11/03 06:37:58;;;;;;;;;;;11.20;99.90;;;;;;12531457;28;20005;-38
2022/11/03 06:44:01;;;;;;;;;;;11.10;99.90;;;;;;12531332;28;20062;-38
2022/11/03 06:50:07;;;;;;;;;;;11.10;99.90;;;;;;12531618;28;19932;-38
2022/11/03 06:56:13;;;;;;;;;;;11.10;99.90;;;;;;12530120;28;19925;-39
2022/11/03 07:02:45;;;;;;;;;;;11.10;99.90;;;;;;12530637;28;19925;-39
2022/11/03 07:08:48;;;;;;;;;;;11.10;99.90;;;;;;12524411;28;19925;-38
2022/11/03 07:14:50;;;;;;;;;;;11.20;99.90;;;;;;12528138;28;20070;-38
2022/11/03 07:20:53;;;;;;;;;;;11.30;99.90;;;;;;12526988;28;19982;-38
2022/11/03 07:26:58;;;;;;;;;;;11.30;99.90;;;;;;12520129;28;19932;-38
2022/11/03 07:33:05;;;;;;;;;;;11.30;99.90;;;;;;12527831;28;19929;-39
2022/11/03 07:39:10;;;;;;;;;;;11.30;99.90;;;;;;12531019;28;19939;-38
2022/11/03 07:45:27;;;;;;;;;;;11.40;99.90;;;;;;12529812;28;19936;-38
2022/11/03 07:51:33;;;;;;;;;;;11.40;99.90;;;;;;12528893;28;19928;-38
2022/11/03 07:57:35;;;;;;;;;;;11.50;99.90;;;;;;12530652;28;19964;-38
2022/11/03 08:03:45;;;;;;;;;;;11.50;99.90;;;;;;12526221;28;19936;-38
2022/11/03 08:09:46;;;;;;;;;;;11.60;99.90;;;;;;12525888;28;19932;-38
2022/11/03 08:15:48;;;;;;;;;;;11.60;99.90;;;;;;12529550;28;20012;-38
2022/11/03 08:21:50;;;;;;;;;;;11.70;99.90;;;;;;12527366;28;19928;-35
2022/11/03 08:27:52;;;;;;;;;;;11.90;99.90;;;;;;12535580;28;19936;-39
2022/11/03 08:33:53;;;;;;;;;;;11.90;99.90;;;;;;12522982;28;19925;-38
2022/11/03 08:39:55;;;;;;;;;;;11.90;99.90;;;;;;12517885;28;19925;-38
2022/11/03 08:45:57;;;;;;;;;;;12.00;99.90;;;;;;12526231;28;20364;-40
2022/11/03 08:52:15;;;;;;;;;;;12.00;99.90;;;;;;12516714;28;19935;-38
2022/11/03 08:58:17;;;;;;;;;;;12.00;99.90;;;;;;12528799;28;19963;-38
2022/11/03 09:04:19;;;;;;;;;;;12.00;99.90;;;;;;12520149;28;19932;-37
2022/11/03 09:10:21;;;;;;;;;;;12.00;99.90;;;;;;12530573;28;19932;-37
2022/11/03 09:16:29;;;;;;;;;;;12.10;99.90;;;;;;12529983;28;19925;-38
2022/11/03 09:22:30;;;;;;;;;;;12.20;99.90;;;;;;12528702;28;19932;-38
2022/11/03 09:28:32;;;;;;;;;;;12.20;99.90;;;;;;12525258;28;19929;-38
2022/11/03 09:34:34;;;;;;;;;;;12.30;99.90;;;;;;12521939;28;19932;-38
2022/11/03 09:40:36;;;;;;;;;;;12.40;99.90;;;;;;12524781;28;19928;-38
2022/11/03 09:46:38;;;;;;;;;;;12.50;99.90;;;;;;12530842;28;19924;-38
2022/11/03 09:52:40;;;;;;;;;;;12.80;99.90;;;;;;12534955;28;19925;-38
2022/11/03 09:58:42;;;;;;;;;;;12.80;99.90;;;;;;12532140;28;19929;-38
2022/11/03 10:04:43;;;;;;;;;;;13.00;99.90;;;;;;12534127;28;19929;-38
2022/11/03 10:10:45;;;;;;;;;;;13.10;99.90;;;;;;12544043;28;19929;-38
2022/11/03 10:16:52;;;;;;;;;;;13.20;99.90;;;;;;12539063;28;19925;-37
2022/11/03 10:22:54;;;;;;;;;;;13.30;99.90;;;;;;12524040;28;19925;-38
2022/11/03 10:28:56;;;;;;;;;;;13.20;99.90;;;;;;12530477;28;20361;-38
2022/11/03 10:34:58;;;;;;;;;;;13.20;99.90;;;;;;12536136;28;19980;-38
2022/11/03 10:41:09;;;;;;;;;;;13.30;99.90;;;;;;12534040;28;20023;-47
2022/11/03 10:47:29;;;;;;;;;;;13.40;99.90;;;;;;12523826;28;20376;-37
2022/11/03 10:53:31;;;;;;;;;;;13.40;99.90;;;;;;12526959;28;20350;-38
2022/11/03 10:59:36;;;;;;;;;;;13.40;99.90;;;;;;12533007;28;19925;-37
2022/11/03 11:05:43;;;;;;;;;;;13.30;99.90;;;;;;12529514;28;19925;-38
2022/11/03 11:11:59;;;;;;;;;;;13.20;99.90;;;;;;12535246;28;19928;-38
2022/11/03 11:18:01;;;;;;;;;;;13.20;99.90;;;;;;12510596;28;19929;-38
2022/11/03 11:24:02;;;;;;;;;;;13.20;99.90;;;;;;12531860;28;19937;-38
2022/11/03 11:30:06;;;;;;;;;;;13.20;99.90;;;;;;12526450;28;19925;-38
2022/11/03 11:36:18;;;;;;;;;;;13.10;99.90;;;;;;12499034;28;20369;-37
2022/11/03 11:42:20;;;;;;;;;;;13.20;99.90;;;;;;12513096;28;19933;-37
2022/11/03 11:48:22;;;;;;;;;;;13.10;99.90;;;;;;12534878;28;19929;-37
2022/11/03 11:54:24;;;;;;;;;;;13.10;99.90;;;;;;12528709;28;19932;-38
2022/11/03 12:00:27;;;;;;;;;;;13.00;99.90;;;;;;12534919;28;19929;-38
2022/11/03 12:06:33;;;;;;;;;;;13.00;99.90;;;;;;12526744;28;19932;-37
2022/11/03 12:12:35;;;;;;;;;;;13.00;99.90;;;;;;12530316;28;19924;-38
2022/11/03 12:18:41;;;;;;;;;;;12.90;99.90;;;;;;12523232;28;19932;-37
2022/11/03 12:24:51;;;;;;;;;;;12.90;99.90;;;;;;12531443;28;19929;-37
2022/11/03 12:30:52;;;;;;;;;;;12.80;99.90;;;;;;12532792;28;19932;-38
2022/11/03 12:36:54;;;;;;;;;;;12.80;99.90;;;;;;12529051;28;19958;-37
2022/11/03 12:42:57;;;;;;;;;;;12.90;99.90;;;;;;12534781;28;19932;-39
2022/11/03 12:48:58;;;;;;;;;;;12.90;99.90;;;;;;12526676;28;19924;-37
2022/11/03 12:55:00;;;;;;;;;;;13.00;99.90;;;;;;12520723;28;20295;-37
2022/11/03 13:01:02;;;;;;;;;;;13.00;99.90;;;;;;12538532;28;19933;-38
2022/11/03 13:07:04;;;;;;;;;;;13.00;99.90;;;;;;12523482;28;19948;-37
2022/11/03 13:13:06;;;;;;;;;;;12.90;99.90;;;;;;12526372;28;19928;-38
2022/11/03 13:19:11;;;;;;;;;;;12.90;99.90;;;;;;12526439;28;19958;-37
2022/11/03 13:25:13;;;;;;;;;;;12.90;99.90;;;;;;12520541;28;20239;-37
2022/11/03 13:31:14;;;;;;;;;;;13.00;99.90;;;;;;12521766;28;20376;-38
2022/11/03 13:37:16;;;;;;;;;;;13.50;99.90;;;;;;12539316;28;19925;-38
2022/11/03 13:43:18;;;;;;;;;;;13.60;99.90;;;;;;12530552;28;19932;-37
2022/11/03 13:49:21;;;;;;;;;;;13.60;99.90;;;;;;12528481;28;19936;-38
2022/11/03 13:55:43;;;;;;;;;;;13.40;99.90;;;;;;12536718;28;20296;-38
2022/11/03 14:01:44;;;;;;;;;;;13.40;99.90;;;;;;12522173;28;19932;-37
2022/11/03 14:07:47;;;;;;;;;;;13.40;99.90;;;;;;12537785;28;20372;-37
2022/11/03 14:13:49;;;;;;;;;;;13.40;99.90;;;;;;12531173;28;19932;-37
2022/11/03 14:19:50;;;;;;;;;;;13.30;99.90;;;;;;12534160;28;19974;-37
2022/11/03 14:25:55;;;;;;;;;;;13.30;99.90;;;;;;12548981;28;20284;-38
2022/11/03 14:32:17;;;;;;;;;;;13.20;99.90;;;;;;12537317;28;19932;-37
2022/11/03 14:38:19;;;;;;;;;;;13.20;99.90;;;;;;12538914;28;20291;-37
2022/11/03 14:44:21;;;;;;;;;;;13.10;99.90;;;;;;12532679;28;19924;-37
2022/11/03 14:50:22;;;;;;;;;;;13.10;99.90;;;;;;12522268;28;19933;-37
2022/11/03 14:56:24;;;;;;;;;;;13.00;99.90;;;;;;12538445;28;19925;-37
2022/11/03 15:02:27;;;;;;;;;;;13.00;99.90;;;;;;12533730;28;20296;-38
2022/11/03 15:08:31;;;;;;;;;;;12.90;99.90;;;;;;12526961;28;19929;-38
2022/11/03 15:14:32;;;;;;;;;;;12.90;99.90;;;;;;12531481;28;20285;-37
2022/11/03 15:20:35;;;;;;;;;;;12.80;99.90;;;;;;12527770;28;19947;-37
2022/11/03 15:26:36;;;;;;;;;;;12.80;99.90;;;;;;12530988;28;19929;-39
2022/11/03 15:32:38;;;;;;;;;;;12.80;99.90;;;;;;12534988;28;19928;-37
2022/11/03 15:38:40;;;;;;;;;;;12.70;99.90;;;;;;12523243;28;19936;-38
2022/11/03 15:44:42;;;;;;;;;;;12.70;99.90;;;;;;12522170;28;19928;-38
2022/11/03 15:50:43;;;;;;;;;;;12.70;99.90;;;;;;12530746;28;19932;-37
2022/11/03 15:56:45;;;;;;;;;;;12.70;99.90;;;;;;12534077;28;19929;-37
2022/11/03 16:02:47;;;;;;;;;;;12.70;99.90;;;;;;12524138;28;19924;-38
2022/11/03 16:08:52;;;;;;;;;;;12.70;99.90;;;;;;12530805;28;19963;-38
2022/11/03 16:14:54;;;;;;;;;;;12.70;99.90;;;;;;12528334;28;19933;-37
2022/11/03 16:20:55;;;;;;;;;;;12.70;99.90;;;;;;12530266;28;19925;-37
2022/11/03 16:26:57;;;;;;;;;;;12.70;99.90;;;;;;12519752;28;19925;-37
2022/11/03 16:32:59;;;;;;;;;;;12.70;99.90;;;;;;12525166;28;20019;-37
2022/11/03 16:39:01;;;;;;;;;;;12.70;99.90;;;;;;12525874;28;19925;-38
2022/11/03 16:45:13;;;;;;;;;;;12.70;99.90;;;;;;12527306;28;20016;-37
2022/11/03 16:51:15;;;;;;;;;;;12.70;99.90;;;;;;12531460;28;20291;-38
2022/11/03 16:57:17;;;;;;;;;;;12.70;99.90;;;;;;12533657;28;19929;-38
2022/11/03 17:03:19;;;;;;;;;;;12.60;99.90;;;;;;12531927;28;20305;-38
2022/11/03 17:09:21;;;;;;;;;;;12.60;99.90;;;;;;12530416;28;19928;-38
2022/11/03 17:15:23;;;;;;;;;;;12.60;99.90;;;;;;12532969;28;19990;-37
2022/11/03 17:21:25;;;;;;;;;;;12.70;99.90;;;;;;12537314;28;19925;-37
2022/11/03 17:27:47;;;;;;;;;;;12.70;99.90;;;;;;12534078;28;20322;-37
2022/11/03 17:33:49;;;;;;;;;;;12.70;99.90;;;;;;12524976;28;20016;-37
2022/11/03 17:39:51;;;;;;;;;;;12.60;99.90;;;;;;12538725;28;19928;-37
2022/11/03 17:45:52;;;;;;;;;;;12.50;99.90;;;;;;12533916;28;19932;-38
2022/11/03 17:51:54;;;;;;;;;;;12.50;99.90;;;;;;12529328;28;20385;-38
2022/11/03 17:57:58;;;;;;;;;;;12.50;99.90;;;;;;12535188;28;19924;-37
2022/11/03 18:04:01;;;;;;;;;;;12.50;99.90;;;;;;12529914;28;19970;-38
2022/11/03 18:10:03;;;;;;;;;;;12.50;99.90;;;;;;12533749;28;19924;-38
2022/11/03 18:16:12;;;;;;;;;;;12.60;99.90;;;;;;12518978;28;19931;-38
2022/11/03 18:22:14;;;;;;;;;;;12.60;99.90;;;;;;12529312;28;19940;-38
2022/11/03 18:28:16;;;;;;;;;;;12.60;99.90;;;;;;12535880;28;19924;-37
2022/11/03 18:34:22;;;;;;;;;;;12.30;99.90;;;;;;12534030;28;19925;-38
2022/11/03 18:40:24;;;;;;;;;;;12.00;99.90;;;;;;12535775;28;20304;-38
2022/11/03 18:46:26;;;;;;;;;;;11.70;99.90;;;;;;12531572;28;20441;-38
2022/11/03 18:52:27;;;;;;;;;;;11.70;99.90;;;;;;12528706;28;19972;-37
2022/11/03 18:58:32;;;;;;;;;;;11.70;99.90;;;;;;12523066;28;19924;-38
2022/11/03 19:04:35;;;;;;;;;;;11.50;99.90;;;;;;12528545;28;19928;-37
2022/11/03 19:10:38;;;;;;;;;;;11.50;99.90;;;;;;12524561;28;20381;-39
2022/11/03 19:16:40;;;;;;;;;;;11.40;99.90;;;;;;12525804;28;19932;-38
2022/11/03 19:23:02;;;;;;;;;;;11.40;99.90;;;;;;12524877;28;19979;-38
2022/11/03 19:29:08;;;;;;;;;;;11.20;99.90;;;;;;12523901;28;20312;-38
2022/11/03 19:35:18;;;;;;;;;;;11.20;99.90;;;;;;12531289;28;20019;-37
2022/11/03 19:47:42;;;;;;;;;;;11.10;99.90;;;;;;12523034;28;19952;-38
2022/11/03 19:54:08;;;;;;;;;;;11.20;99.90;;;;;;12528267;28;19929;-38
2022/11/03 20:00:15;;;;;;;;;;;11.20;99.90;;;;;;12531018;28;19947;-39
2022/11/03 20:06:17;;;;;;;;;;;11.20;99.90;;;;;;12528511;28;19948;-37
2022/11/03 20:12:20;;;;;;;;;;;11.20;99.90;;;;;;12518501;28;20036;-38
2022/11/03 20:18:21;;;;;;;;;;;11.20;99.90;;;;;;12520295;28;20287;-38
2022/11/03 20:24:23;;;;;;;;;;;11.10;99.90;;;;;;12529514;28;19932;-38
2022/11/03 20:30:26;;;;;;;;;;;11.10;99.90;;;;;;12521237;28;19925;-38
2022/11/03 20:36:29;;;;;;;;;;;11.10;99.90;;;;;;12517544;28;20346;-37
2022/11/03 20:42:30;;;;;;;;;;;11.10;99.90;;;;;;12526603;28;19925;-38
2022/11/03 20:48:32;;;;;;;;;;;11.10;99.90;;;;;;12520669;28;19925;-38
2022/11/03 20:54:34;;;;;;;;;;;11.10;99.90;;;;;;12521613;28;19932;-38
2022/11/03 21:00:36;;;;;;;;;;;11.10;99.90;;;;;;12521371;28;20277;-38
2022/11/03 21:06:37;;;;;;;;;;;11.10;99.90;;;;;;12526349;28;20276;-38
2022/11/03 21:12:39;;;;;;;;;;;11.00;99.90;;;;;;12521705;28;19929;-38
2022/11/03 21:25:02;;;;;;;;;;;10.90;99.90;;;;;;12525469;28;19933;-38
2022/11/03 21:31:04;;;;;;;;;;;10.90;99.90;;;;;;12527792;28;19929;-38
2022/11/03 21:37:06;;;;;;;;;;;10.90;99.90;;;;;;12523965;28;19987;-38
2022/11/03 21:49:41;;;;;;;;;;;10.90;99.90;;;;;;12537177;28;20662;-39
2022/11/03 21:55:45;;;;;;;;;;;10.90;99.90;;;;;;12538477;28;19925;-38
2022/11/03 22:01:49;;;;;;;;;;;10.90;99.90;;;;;;12528491;28;20051;-38
2022/11/03 22:07:51;;;;;;;;;;;10.80;99.90;;;;;;12526944;28;20371;-38
2022/11/03 22:13:57;;;;;;;;;;;10.90;99.90;;;;;;12529757;28;20384;-38
2022/11/03 22:32:39;;;;;;;;;;;10.90;99.90;;;;;;12536207;28;19925;-39
2022/11/03 22:51:22;;;;;;;;;;;11.00;99.90;;;;;;12529729;28;20002;-37
2022/11/03 22:57:23;;;;;;;;;;;11.00;99.90;;;;;;12530413;28;20193;-38
2022/11/03 23:03:28;;;;;;;;;;;11.10;99.90;;;;;;12523919;28;19925;-38
2022/11/03 23:09:30;;;;;;;;;;;11.20;99.90;;;;;;12526671;28;19924;-38
2022/11/03 23:15:32;;;;;;;;;;;11.30;99.90;;;;;;12524695;28;19925;-38
2022/11/03 23:21:37;;;;;;;;;;;11.30;99.90;;;;;;12519497;28;19931;-37
2022/11/03 23:27:38;;;;;;;;;;;11.40;99.90;;;;;;12521050;28;19929;-38
2022/11/03 23:33:40;;;;;;;;;;;11.30;99.90;;;;;;12515948;28;19986;-38
2022/11/03 23:39:43;;;;;;;;;;;11.20;99.90;;;;;;12524851;28;21291;-38
2022/11/03 23:52:05;;;;;;;;;;;11.20;99.90;;;;;;12527636;28;19977;-37
2022/11/03 23:58:20;;;;;;;;;;;11.20;99.90;;;;;;12518341;28;19924;-38
